Terminal Aerodrome Forecast
Issued by NWS

Home | Current Version | Previous Version | Text Only | Print | Product List | Glossary On
Versions: 1 2 3 4 5 6 7 8 9 10 11 12 13 14 15 16 17 18 19 20 21 22 23 24 25 26 27 28 29 30 31 32 33 34 35 36 37 38
000
FTUS44 KHGX 282320
TAFUTS
TAF
KUTS 282320Z 2900/2924 18007KT P6SM SCT060
     FM290200 17005KT P6SM SCT015
     FM291100 VRB03KT 4SM BR SCT006 BKN012
     FM291300 VRB04KT P6SM FEW015 SCT250
     FM291500 21004KT P6SM SCT250=

USA.gov is the U.S. government's official web portal to all federal, state and local government web resources and services.